CWCA

Cartwright Airport

Cartwright, Canada

CWCA 211011Z 31015KT 15SM -RA OVC020 08/06 A2988 RMK SC8 SLP121

Observed Flight Rules
Sep-21 @ 10:11 UTC (13 minutes ago)
 
Marginal Visual Flight Rules
Wind Visibility Clouds Conditions
310° at 15 knots 15 miles
  • Overcast at 2,000' AGL
  • Light Rain
Temperatures Readings
Current 8°C / 46°F
Dewpoint 6°C / 43°F
Humidity 87%
Altimeter 29.88" Hg
Pressure 1012.1 hPa
Elevation 14
Observed Flight Rules
Sep-21 @ 10:11 UTC
(13 minutes ago)
 
MVFR
Wind Visibility
310° at 15 knots 15 miles
Clouds Conditions
  • Overcast at 2,000' AGL
  • Light Rain
Temperature Dewpoint
8°C / 46°F 6°C / 43°F
Humidity Altimeter Pressure
87% 29.88" Hg 1012.1 hPa